Time;durP1;ratioP1;P1;durP2;ratioP2;P2;SDS_P1;SDS_P2;PMS_P1;PMS_P2;Temp;Humidity;BMP_temperature;BMP_pressure;BME280_temperature;BME280_humidity;BME280_pressure;Samples;Min_cycle;Max_cycle;Signal;HPM_P1;HPM_P2
2021/11/09 00:00:43;0.00;0.00;0.62;0.00;0.00;0.62;1.20;0.70;;;23.40;29.80;;;;;;2257856;61;20409;-58
2021/11/09 00:03:29;0.00;0.00;0.62;0.00;0.00;0.62;1.70;0.87;;;23.30;29.70;;;;;;2257597;61;20367;-60
2021/11/09 00:09:15;0.00;0.00;0.62;0.00;0.00;0.62;1.40;0.70;;;23.30;29.70;;;;;;2257721;61;20378;-58
2021/11/09 00:12:00;0.00;0.00;0.62;0.00;0.00;0.62;4.10;1.00;;;23.30;29.70;;;;;;2256839;61;20394;-59
2021/11/09 00:14:45;0.00;0.00;0.62;0.00;0.00;0.62;1.30;0.70;;;23.30;29.80;;;;;;2257758;61;20378;-58
2021/11/09 00:17:31;0.00;0.00;0.62;0.00;0.00;0.62;1.60;0.70;;;23.30;29.80;;;;;;2257667;61;20413;-58
2021/11/09 00:20:18;0.00;0.00;0.62;0.00;0.00;0.62;1.40;0.80;;;23.30;29.70;;;;;;2256736;61;20451;-59
2021/11/09 00:23:05;0.00;0.00;0.62;0.00;0.00;0.62;1.47;0.70;;;23.40;29.80;;;;;;2257496;61;20391;-59
2021/11/09 00:25:50;0.00;0.00;0.62;0.00;0.00;0.62;1.50;0.70;;;23.30;29.80;;;;;;2257760;61;20367;-58
2021/11/09 00:28:34;0.00;0.00;0.62;0.00;0.00;0.62;1.60;0.87;;;23.30;29.70;;;;;;2256630;61;20358;-58
2021/11/09 00:31:19;0.00;0.00;0.62;0.00;0.00;0.62;1.47;0.80;;;23.30;29.70;;;;;;2257445;61;20398;-59
2021/11/09 00:34:05;0.00;0.00;0.62;0.00;0.00;0.62;1.20;0.70;;;23.30;29.70;;;;;;2256825;61;20393;-60
2021/11/09 00:36:49;0.00;0.00;0.62;0.00;0.00;0.62;1.33;0.70;;;23.30;29.70;;;;;;2257528;61;20367;-58
2021/11/09 00:39:34;0.00;0.00;0.62;0.00;0.00;0.62;1.40;0.70;;;23.30;29.70;;;;;;2257206;61;20371;-60
2021/11/09 00:42:19;0.00;0.00;0.62;0.00;0.00;0.62;1.17;0.60;;;23.30;29.70;;;;;;2255200;61;20606;-60
2021/11/09 00:45:08;0.00;0.00;0.62;0.00;0.00;0.62;1.47;0.80;;;23.40;29.80;;;;;;2257861;61;20742;-60
2021/11/09 00:47:53;0.00;0.00;0.62;0.00;0.00;0.62;1.47;0.80;;;23.40;29.80;;;;;;2257718;61;20378;-60
2021/11/09 00:50:42;0.00;0.00;0.62;0.00;0.00;0.62;1.70;0.77;;;23.40;29.80;;;;;;2256595;61;20359;-57
2021/11/09 00:53:26;0.00;0.00;0.62;0.00;0.00;0.62;1.87;0.90;;;23.30;29.70;;;;;;2257446;61;20391;-60
2021/11/09 00:56:11;0.00;0.00;0.62;0.00;0.00;0.62;1.50;0.77;;;23.40;29.80;;;;;;2257198;61;20394;-57
2021/11/09 00:58:57;0.00;0.00;0.62;0.00;0.00;0.62;1.40;0.70;;;23.30;29.80;;;;;;2258515;61;20718;-58
2021/11/09 01:01:42;0.00;0.00;0.62;0.00;0.00;0.62;1.47;0.70;;;23.40;29.80;;;;;;2258086;61;20375;-59
2021/11/09 01:04:27;0.00;0.00;0.62;0.00;0.00;0.62;1.40;0.80;;;23.40;29.80;;;;;;2257326;61;20718;-58
2021/11/09 01:07:14;0.00;0.00;0.62;0.00;0.00;0.62;1.30;0.70;;;23.30;29.70;;;;;;2258643;61;20491;-58
2021/11/09 01:09:58;0.00;0.00;0.62;0.00;0.00;0.62;1.60;0.80;;;23.40;29.80;;;;;;2258368;61;20375;-59
2021/11/09 01:12:44;0.00;0.00;0.62;0.00;0.00;0.62;2.80;0.93;;;23.40;29.80;;;;;;2257282;61;20434;-58
2021/11/09 01:15:31;0.00;0.00;0.62;0.00;0.00;0.62;2.30;1.30;;;23.30;29.70;;;;;;2258156;61;20382;-58
2021/11/09 01:18:19;0.00;0.00;0.62;0.00;0.00;0.62;4.17;1.30;;;23.40;29.70;;;;;;2258034;61;20376;-58
2021/11/09 01:21:06;0.00;0.00;0.62;0.00;0.00;0.62;1.80;1.00;;;23.30;29.60;;;;;;2258033;61;20730;-60
2021/11/09 01:23:54;0.00;0.00;0.62;0.00;0.00;0.62;1.70;1.27;;;23.30;29.60;;;;;;2258166;61;20398;-59
2021/11/09 01:26:39;0.00;0.00;0.62;0.00;0.00;0.62;2.67;1.60;;;23.30;29.60;;;;;;2257333;61;20730;-60
2021/11/09 01:29:24;0.00;0.00;0.62;0.00;0.00;0.62;2.07;1.40;;;23.30;29.60;;;;;;2258297;61;20490;-60
2021/11/09 01:32:08;0.00;0.00;0.62;0.00;0.00;0.62;3.30;1.67;;;23.30;29.60;;;;;;2258144;61;20386;-60
2021/11/09 01:34:53;0.00;0.00;0.62;0.00;0.00;0.62;1.87;1.27;;;23.30;29.50;;;;;;2257420;61;20390;-60
2021/11/09 01:37:38;0.00;0.00;0.62;0.00;0.00;0.62;3.43;1.97;;;23.30;29.50;;;;;;2258013;61;20362;-59
2021/11/09 01:40:25;0.00;0.00;0.62;0.00;0.00;0.62;2.30;1.10;;;23.20;29.50;;;;;;2258215;61;20363;-59
2021/11/09 01:43:11;0.00;0.00;0.62;0.00;0.00;0.62;2.80;1.10;;;23.20;29.50;;;;;;2257799;61;20378;-60
2021/11/09 01:45:56;0.00;0.00;0.62;0.00;0.00;0.62;2.37;1.37;;;23.20;29.50;;;;;;2258090;61;20710;-61
2021/11/09 01:48:41;0.00;0.00;0.62;0.00;0.00;0.62;2.50;1.80;;;23.20;29.50;;;;;;2257264;61;20362;-60
2021/11/09 01:51:29;0.00;0.00;0.62;0.00;0.00;0.62;3.30;1.53;;;23.20;29.50;;;;;;2258210;61;20425;-58
2021/11/09 01:54:14;0.00;0.00;0.62;0.00;0.00;0.62;2.37;1.67;;;23.20;29.50;;;;;;2258112;61;20406;-58
2021/11/09 01:57:01;0.00;0.00;0.62;0.00;0.00;0.62;2.00;1.40;;;23.10;29.40;;;;;;2257141;61;20378;-58
2021/11/09 01:59:46;0.00;0.00;0.62;0.00;0.00;0.62;2.70;1.20;;;23.10;29.40;;;;;;2258089;61;20414;-58
2021/11/09 02:02:31;0.00;0.00;0.62;0.00;0.00;0.62;2.33;1.33;;;23.10;29.40;;;;;;2258019;61;20398;-58
2021/11/09 02:05:16;0.00;0.00;0.62;0.00;0.00;0.62;4.77;1.87;;;23.10;29.40;;;;;;2257728;61;20359;-59
2021/11/09 02:08:03;0.00;0.00;0.62;0.00;0.00;0.62;2.10;1.50;;;23.10;29.40;;;;;;2257939;61;20362;-60
2021/11/09 02:10:49;0.00;0.00;0.62;0.00;0.00;0.62;1.90;1.40;;;23.10;29.40;;;;;;2256933;61;20424;-61
2021/11/09 02:13:35;0.00;0.00;0.62;0.00;0.00;0.62;2.40;1.40;;;23.00;29.40;;;;;;2258133;61;20441;-60
2021/11/09 02:16:20;0.00;0.00;0.62;0.00;0.00;0.62;2.43;1.60;;;23.00;29.40;;;;;;2257961;61;20363;-58
2021/11/09 02:19:06;0.00;0.00;0.62;0.00;0.00;0.62;2.10;1.40;;;23.00;29.40;;;;;;2257041;61;20363;-61
2021/11/09 02:21:52;0.00;0.00;0.62;0.00;0.00;0.62;2.80;1.40;;;23.00;29.40;;;;;;2257855;61;20641;-58
2021/11/09 02:24:37;0.00;0.00;0.62;0.00;0.00;0.62;3.20;1.57;;;23.00;29.40;;;;;;2258191;61;20367;-59
2021/11/09 02:27:22;0.00;0.00;0.62;0.00;0.00;0.62;3.23;1.60;;;23.00;29.40;;;;;;2257764;61;20382;-60
2021/11/09 02:30:11;0.00;0.00;0.62;0.00;0.00;0.62;4.77;2.03;;;23.00;29.40;;;;;;2254770;61;20582;-58
2021/11/09 02:32:59;0.00;0.00;0.62;0.00;0.00;0.62;2.13;1.50;;;23.00;29.40;;;;;;2253700;61;20429;-60
2021/11/09 02:35:44;0.00;0.00;0.62;0.00;0.00;0.62;2.10;1.10;;;23.00;29.40;;;;;;2258027;61;20700;-60
2021/11/09 02:38:30;0.00;0.00;0.62;0.00;0.00;0.62;2.03;1.40;;;23.00;29.40;;;;;;2258053;61;20358;-60
2021/11/09 02:41:16;0.00;0.00;0.62;0.00;0.00;0.62;2.97;1.13;;;23.00;29.40;;;;;;2256950;61;20386;-60
2021/11/09 02:44:01;0.00;0.00;0.62;0.00;0.00;0.62;3.10;1.53;;;22.90;29.30;;;;;;2258187;61;20359;-60
2021/11/09 02:46:55;0.00;0.00;0.62;0.00;0.00;0.62;3.63;1.87;;;22.90;29.30;;;;;;2258163;61;20366;-60
2021/11/09 02:49:54;0.00;0.00;0.62;0.00;0.00;0.62;3.90;1.70;;;22.90;29.40;;;;;;2257478;61;20402;-60
2021/11/09 02:52:48;0.00;0.00;0.62;0.00;0.00;0.62;2.07;1.33;;;22.90;29.40;;;;;;2257670;61;20450;-60
2021/11/09 02:55:39;0.00;0.00;0.62;0.00;0.00;0.62;2.77;1.30;;;22.90;29.40;;;;;;2256959;61;20359;-60
2021/11/09 02:58:32;0.00;0.00;0.62;0.00;0.00;0.62;2.07;1.00;;;22.90;29.40;;;;;;2258053;61;20367;-60
2021/11/09 03:01:27;0.00;0.00;0.62;0.00;0.00;0.62;2.70;1.47;;;22.90;29.40;;;;;;2257993;61;20619;-60
2021/11/09 03:04:17;0.00;0.00;0.62;0.00;0.00;0.62;2.40;1.30;;;22.80;29.30;;;;;;2257211;61;20363;-60
2021/11/09 03:07:05;0.00;0.00;0.62;0.00;0.00;0.62;4.40;1.80;;;22.80;29.30;;;;;;2257804;61;20699;-60
2021/11/09 03:09:57;0.00;0.00;0.62;0.00;0.00;0.62;1.97;1.73;;;22.80;29.30;;;;;;2257005;61;20721;-59
2021/11/09 03:12:44;0.00;0.00;0.62;0.00;0.00;0.62;2.00;1.37;;;22.80;29.30;;;;;;2254685;61;20378;-59
2021/11/09 03:15:31;0.00;0.00;0.62;0.00;0.00;0.62;4.23;1.77;;;22.80;29.30;;;;;;2257711;61;20370;-58
2021/11/09 03:18:20;0.00;0.00;0.62;0.00;0.00;0.62;2.20;1.50;;;22.80;29.40;;;;;;2256865;61;20359;-60
2021/11/09 03:45:32;0.00;0.00;0.62;0.00;0.00;0.62;3.00;1.40;;;22.60;29.30;;;;;;2258058;61;20377;-60
2021/11/09 03:48:17;0.00;0.00;0.62;0.00;0.00;0.62;2.00;1.00;;;22.60;29.40;;;;;;2256798;61;20693;-60
2021/11/09 03:51:05;0.00;0.00;0.62;0.00;0.00;0.62;4.23;1.90;;;22.60;29.40;;;;;;2257530;61;20618;-60
2021/11/09 03:53:50;0.00;0.00;0.62;0.00;0.00;0.62;2.53;2.10;;;22.60;29.40;;;;;;2257423;61;20382;-60
2021/11/09 03:56:39;0.00;0.00;0.62;0.00;0.00;0.62;3.23;2.13;;;22.60;29.40;;;;;;2257871;61;20588;-60
2021/11/09 04:03:02;0.00;0.00;0.62;0.00;0.00;0.62;3.17;1.60;;;22.50;29.30;;;;;;2256638;61;20383;-58
2021/11/09 04:05:39;0.00;0.00;0.62;0.00;0.00;0.62;1.90;1.23;;;22.50;29.30;;;;;;2257928;61;20363;-59
2021/11/09 04:11:25;0.00;0.00;0.62;0.00;0.00;0.62;2.10;1.47;;;22.50;29.30;;;;;;2257315;61;20359;-60
2021/11/09 04:17:39;0.00;0.00;0.62;0.00;0.00;0.62;3.30;1.80;;;22.50;29.40;;;;;;2256697;61;20358;-60
2021/11/09 04:36:27;0.00;0.00;0.62;0.00;0.00;0.62;2.67;1.60;;;22.40;29.40;;;;;;2257409;61;20362;-60
2021/11/09 05:08:14;0.00;0.00;0.62;0.00;0.00;0.62;2.17;1.70;;;22.30;29.40;;;;;;2257205;61;20378;-60
2021/11/09 05:09:25;0.00;0.00;0.62;0.00;0.00;0.62;3.17;1.70;;;22.30;29.40;;;;;;2256570;61;20753;-58
2021/11/09 05:12:10;0.00;0.00;0.62;0.00;0.00;0.62;2.70;1.73;;;22.30;29.40;;;;;;2253969;61;20796;-60
2021/11/09 05:14:54;0.00;0.00;0.62;0.00;0.00;0.62;4.10;1.90;;;22.30;29.40;;;;;;2257714;61;20359;-59
2021/11/09 05:17:39;0.00;0.00;0.62;0.00;0.00;0.62;2.00;1.63;;;22.20;29.40;;;;;;2257050;61;20377;-59
2021/11/09 05:20:24;0.00;0.00;0.62;0.00;0.00;0.62;3.93;1.93;;;22.20;29.40;;;;;;2257272;61;20730;-60
2021/11/09 05:23:10;0.00;0.00;0.62;0.00;0.00;0.62;4.83;2.60;;;22.20;29.40;;;;;;2256488;61;20386;-60
2021/11/09 05:25:55;0.00;0.00;0.62;0.00;0.00;0.62;3.40;2.03;;;22.20;29.40;;;;;;2254457;61;20371;-57
2021/11/09 05:28:40;0.00;0.00;0.62;0.00;0.00;0.62;3.70;2.40;;;22.20;29.40;;;;;;2257537;61;20385;-59
2021/11/09 05:31:25;0.00;0.00;0.62;0.00;0.00;0.62;2.83;2.20;;;22.20;29.40;;;;;;2252947;61;20383;-58
2021/11/09 05:34:10;0.00;0.00;0.62;0.00;0.00;0.62;2.70;2.20;;;22.20;29.40;;;;;;2257283;61;20608;-61
2021/11/09 05:36:55;0.00;0.00;0.62;0.00;0.00;0.62;5.03;3.00;;;22.20;29.40;;;;;;2257639;61;20347;-58
2021/11/09 05:39:46;0.00;0.00;0.62;0.00;0.00;0.62;3.20;2.10;;;22.20;29.40;;;;;;2256903;61;20363;-60
2021/11/09 05:42:30;0.00;0.00;0.62;0.00;0.00;0.62;2.90;1.80;;;22.20;29.40;;;;;;2257295;61;20382;-58
2021/11/09 05:45:17;0.00;0.00;0.62;0.00;0.00;0.62;3.90;2.20;;;22.20;29.40;;;;;;2257092;61;20441;-60
2021/11/09 05:48:02;0.00;0.00;0.62;0.00;0.00;0.62;4.33;2.70;;;22.10;29.30;;;;;;2255086;61;20358;-60
2021/11/09 05:50:47;0.00;0.00;0.62;0.00;0.00;0.62;3.57;2.33;;;22.20;29.50;;;;;;2258139;61;20722;-58
2021/11/09 05:53:34;0.00;0.00;0.62;0.00;0.00;0.62;2.70;2.07;;;22.20;29.40;;;;;;2257103;61;20391;-60
2021/11/09 05:56:20;0.00;0.00;0.62;0.00;0.00;0.62;3.37;1.90;;;22.20;29.40;;;;;;2257946;61;20618;-60
2021/11/09 05:59:05;0.00;0.00;0.62;0.00;0.00;0.62;2.53;1.77;;;22.10;29.40;;;;;;2258345;61;20379;-59
2021/11/09 06:01:49;0.00;0.00;0.62;0.00;0.00;0.62;4.20;2.63;;;22.10;29.40;;;;;;2257197;61;20407;-60
2021/11/09 06:04:34;0.00;0.00;0.62;0.00;0.00;0.62;5.80;2.70;;;22.10;29.40;;;;;;2258130;61;20431;-59
2021/11/09 06:07:19;0.00;0.00;0.62;0.00;0.00;0.62;4.33;2.10;;;22.10;29.40;;;;;;2257366;61;20428;-60
2021/11/09 06:10:05;0.00;0.00;0.62;0.00;0.00;0.62;4.30;2.67;;;22.10;29.40;;;;;;2254948;61;20358;-60
2021/11/09 06:12:51;0.00;0.00;0.62;0.00;0.00;0.62;3.13;2.13;;;22.10;29.40;;;;;;2257984;61;20673;-59
2021/11/09 06:15:35;0.00;0.00;0.62;0.00;0.00;0.62;3.00;2.10;;;22.10;29.40;;;;;;2256934;61;20719;-59
2021/11/09 06:18:20;0.00;0.00;0.62;0.00;0.00;0.62;5.00;2.93;;;22.10;29.40;;;;;;2257962;61;20359;-60
2021/11/09 06:21:04;0.00;0.00;0.62;0.00;0.00;0.62;3.70;2.63;;;22.10;29.40;;;;;;2258059;61;20718;-60
2021/11/09 06:23:50;0.00;0.00;0.62;0.00;0.00;0.62;4.13;2.90;;;22.10;29.40;;;;;;2256954;61;20486;-60
2021/11/09 06:26:35;0.00;0.00;0.62;0.00;0.00;0.62;3.60;2.10;;;22.10;29.40;;;;;;2258048;61;20378;-60
2021/11/09 06:29:22;0.00;0.00;0.62;0.00;0.00;0.62;6.20;3.27;;;22.10;29.50;;;;;;2257494;61;20366;-60
2021/11/09 06:32:07;0.00;0.00;0.62;0.00;0.00;0.62;5.63;3.47;;;22.10;29.50;;;;;;2257976;61;20390;-59
2021/11/09 06:34:52;0.00;0.00;0.62;0.00;0.00;0.62;3.77;2.80;;;22.00;29.40;;;;;;2257945;61;20742;-60
2021/11/09 06:37:36;0.00;0.00;0.62;0.00;0.00;0.62;5.30;3.40;;;22.00;29.40;;;;;;2256734;61;20698;-60
2021/11/09 06:40:21;0.00;0.00;0.62;0.00;0.00;0.62;4.10;3.03;;;22.10;29.50;;;;;;2255029;61;20603;-60
2021/11/09 06:43:06;0.00;0.00;0.62;0.00;0.00;0.62;4.80;2.90;;;22.00;29.40;;;;;;2258093;61;20382;-60
2021/11/09 06:45:56;0.00;0.00;0.62;0.00;0.00;0.62;5.73;3.93;;;22.00;29.40;;;;;;2256919;61;20363;-59
2021/11/09 06:48:43;0.00;0.00;0.62;0.00;0.00;0.62;4.37;3.63;;;22.00;29.50;;;;;;2258019;61;20359;-58
2021/11/09 06:51:27;0.00;0.00;0.62;0.00;0.00;0.62;6.90;3.67;;;22.00;29.50;;;;;;2257331;61;20749;-60
2021/11/09 06:54:12;0.00;0.00;0.62;0.00;0.00;0.62;5.50;3.33;;;22.00;29.50;;;;;;2257898;61;20367;-58
2021/11/09 06:56:57;0.00;0.00;0.62;0.00;0.00;0.62;7.70;4.73;;;22.00;29.50;;;;;;2257882;61;20379;-58
2021/11/09 06:59:41;0.00;0.00;0.62;0.00;0.00;0.62;12.40;4.77;;;22.00;29.50;;;;;;2256830;61;20444;-57
2021/11/09 07:02:27;0.00;0.00;0.62;0.00;0.00;0.62;6.57;4.00;;;22.00;29.50;;;;;;2258055;61;20395;-57
2021/11/09 07:05:12;0.00;0.00;0.62;0.00;0.00;0.62;9.00;4.93;;;22.00;29.50;;;;;;2258083;61;20359;-58
2021/11/09 07:07:57;0.00;0.00;0.62;0.00;0.00;0.62;4.83;3.50;;;22.00;30.00;;;;;;2256969;61;20363;-59
2021/11/09 07:10:44;0.00;0.00;0.62;0.00;0.00;0.62;8.07;3.97;;;22.00;29.50;;;;;;2257860;61;20394;-59
2021/11/09 07:13:29;0.00;0.00;0.62;0.00;0.00;0.62;4.83;3.80;;;22.00;29.50;;;;;;2257528;61;20495;-57
2021/11/09 07:16:15;0.00;0.00;0.62;0.00;0.00;0.62;6.80;4.57;;;22.00;29.50;;;;;;2251760;61;20431;-58
2021/11/09 07:19:03;0.00;0.00;0.62;0.00;0.00;0.62;5.47;3.57;;;22.00;29.50;;;;;;2257866;61;20734;-64
2021/11/09 07:21:49;0.00;0.00;0.62;0.00;0.00;0.62;7.37;5.40;;;22.00;29.50;;;;;;2256622;61;20382;-61
2021/11/09 07:24:34;0.00;0.00;0.62;0.00;0.00;0.62;10.50;6.20;;;21.90;30.00;;;;;;2258053;61;20425;-60
2021/11/09 07:27:19;0.00;0.00;0.62;0.00;0.00;0.62;9.03;5.17;;;22.00;29.60;;;;;;2257873;61;20390;-60
2021/11/09 07:30:06;0.00;0.00;0.62;0.00;0.00;0.62;7.37;4.70;;;21.90;29.50;;;;;;2256653;61;20478;-58
2021/11/09 07:32:51;0.00;0.00;0.62;0.00;0.00;0.62;7.00;5.23;;;21.90;29.50;;;;;;2257723;61;20402;-58
2021/11/09 07:35:38;0.00;0.00;0.62;0.00;0.00;0.62;8.30;4.80;;;21.90;29.50;;;;;;2257568;61;20718;-60
2021/11/09 07:38:23;0.00;0.00;0.62;0.00;0.00;0.62;8.30;5.17;;;21.90;29.70;;;;;;2257650;61;20370;-61
2021/11/09 07:41:07;0.00;0.00;0.62;0.00;0.00;0.62;8.87;6.03;;;22.00;29.70;;;;;;2257395;61;20367;-60
2021/11/09 07:43:52;0.00;0.00;0.62;0.00;0.00;0.62;6.13;5.33;;;21.90;29.70;;;;;;2256782;61;20439;-60
2021/11/09 07:46:38;0.00;0.00;0.62;0.00;0.00;0.62;6.97;4.80;;;21.90;29.70;;;;;;2257994;61;20402;-60
2021/11/09 07:49:22;0.00;0.00;0.62;0.00;0.00;0.62;8.13;6.00;;;21.90;29.70;;;;;;2257642;61;20479;-57
2021/11/09 07:52:10;0.00;0.00;0.62;0.00;0.00;0.62;7.90;5.80;;;22.00;29.80;;;;;;2253436;61;20403;-59
2021/11/09 07:54:59;0.00;0.00;0.62;0.00;0.00;0.62;8.10;6.07;;;21.90;29.80;;;;;;2257573;61;20514;-59
2021/11/09 07:57:48;0.00;0.00;0.62;0.00;0.00;0.62;9.87;5.83;;;21.90;29.80;;;;;;2257759;61;20424;-60
2021/11/09 08:00:36;0.00;0.00;0.62;0.00;0.00;0.62;9.17;5.60;;;21.90;29.80;;;;;;2257459;61;20478;-60
2021/11/09 08:03:24;0.00;0.00;0.62;0.00;0.00;0.62;7.63;5.60;;;22.00;29.90;;;;;;2257479;61;20414;-61
2021/11/09 08:06:30;0.00;0.00;0.62;0.00;0.00;0.62;9.57;5.40;;;22.00;29.90;;;;;;2256655;61;20482;-61
2021/11/09 08:12:06;0.00;0.00;0.62;0.00;0.00;0.62;7.13;6.00;;;22.00;29.90;;;;;;2257725;61;20386;-61
2021/11/09 08:14:51;0.00;0.00;0.62;0.00;0.00;0.62;7.70;6.50;;;22.10;30.00;;;;;;2256793;61;20410;-60
2021/11/09 08:17:35;0.00;0.00;0.62;0.00;0.00;0.62;8.70;6.63;;;22.00;29.90;;;;;;2257360;61;20571;-61
2021/11/09 08:20:20;0.00;0.00;0.62;0.00;0.00;0.62;7.67;6.20;;;22.00;29.90;;;;;;2257254;61;20681;-60
2021/11/09 08:23:04;0.00;0.00;0.62;0.00;0.00;0.62;9.47;6.50;;;22.10;30.00;;;;;;2257630;61;20413;-61
2021/11/09 08:25:50;0.00;0.00;0.62;0.00;0.00;0.62;8.27;6.10;;;22.10;30.00;;;;;;2257618;61;20366;-61
2021/11/09 08:28:35;0.00;0.00;0.62;0.00;0.00;0.62;7.90;5.33;;;22.10;30.00;;;;;;2256407;61;20381;-60
2021/11/09 08:31:22;0.00;0.00;0.62;0.00;0.00;0.62;8.63;6.20;;;22.10;30.00;;;;;;2257410;61;20475;-60
2021/11/09 08:34:06;0.00;0.00;0.62;0.00;0.00;0.62;7.07;5.43;;;22.20;30.00;;;;;;2257759;61;20454;-61
2021/11/09 08:36:51;0.00;0.00;0.62;0.00;0.00;0.62;8.87;5.60;;;22.20;30.00;;;;;;2256590;61;20386;-60
2021/11/09 08:39:38;0.00;0.00;0.62;0.00;0.00;0.62;10.30;6.53;;;22.20;30.00;;;;;;2257486;61;20374;-58
2021/11/09 08:42:28;0.00;0.00;0.62;0.00;0.00;0.62;13.60;6.83;;;22.20;29.90;;;;;;2257424;61;20379;-59
2021/11/09 08:45:25;0.00;0.00;0.62;0.00;0.00;0.62;5.90;5.23;;;22.30;29.90;;;;;;2257446;61;20378;-59
2021/11/09 08:48:16;0.00;0.00;0.62;0.00;0.00;0.62;8.07;5.53;;;22.30;29.90;;;;;;2254729;61;20354;-59
2021/11/09 08:51:00;0.00;0.00;0.62;0.00;0.00;0.62;8.33;6.07;;;22.30;29.90;;;;;;2256410;61;20378;-59
2021/11/09 08:53:52;0.00;0.00;0.62;0.00;0.00;0.62;8.63;4.97;;;22.30;29.90;;;;;;2257348;61;20390;-61
2021/11/09 09:05:40;0.00;0.00;0.62;0.00;0.00;0.62;9.10;6.83;;;22.40;29.90;;;;;;2256529;61;20626;-59
2021/11/09 09:08:25;0.00;0.00;0.62;0.00;0.00;0.62;13.00;7.30;;;22.50;29.80;;;;;;2257583;61;20362;-60
2021/11/09 09:11:10;0.00;0.00;0.62;0.00;0.00;0.62;12.57;6.80;;;22.50;30.20;;;;;;2257557;61;20374;-59
2021/11/09 09:13:54;0.00;0.00;0.62;0.00;0.00;0.62;10.93;6.70;;;22.50;29.70;;;;;;2256304;61;20385;-59
2021/11/09 09:16:45;0.00;0.00;0.62;0.00;0.00;0.62;8.00;6.27;;;22.60;29.80;;;;;;2257451;61;20362;-60
2021/11/09 09:19:48;0.00;0.00;0.62;0.00;0.00;0.62;6.90;5.70;;;22.60;29.80;;;;;;2257792;61;20379;-60
2021/11/09 09:22:42;0.00;0.00;0.62;0.00;0.00;0.62;10.20;6.43;;;22.60;29.80;;;;;;2254970;61;20650;-60
2021/11/09 09:52:40;0.00;0.00;0.62;0.00;0.00;0.62;11.20;5.00;;;22.90;29.70;;;;;;2401465;53;20395;-60
2021/11/09 09:58:15;0.00;0.00;0.62;0.00;0.00;0.62;6.97;4.90;;;23.00;29.70;;;;;;2254142;61;20383;-59
2021/11/09 10:01:00;0.00;0.00;0.62;0.00;0.00;0.62;12.17;5.00;;;23.00;29.70;;;;;;2257988;61;20362;-60
2021/11/09 10:03:45;0.00;0.00;0.62;0.00;0.00;0.62;7.33;4.53;;;23.00;29.60;;;;;;2257718;61;20421;-62
2021/11/09 10:06:44;0.00;0.00;0.62;0.00;0.00;0.62;7.13;4.70;;;23.10;29.70;;;;;;2257990;61;20394;-59
2021/11/09 10:09:34;0.00;0.00;0.62;0.00;0.00;0.62;8.47;3.30;;;23.10;29.70;;;;;;2258078;61;20497;-60
2021/11/09 10:12:25;0.00;0.00;0.62;0.00;0.00;0.62;5.60;3.53;;;23.20;30.20;;;;;;2256879;61;20384;-60
2021/11/09 10:15:14;0.00;0.00;0.62;0.00;0.00;0.62;9.07;5.40;;;23.20;29.60;;;;;;2258053;61;20444;-60
2021/11/09 10:18:03;0.00;0.00;0.62;0.00;0.00;0.62;6.77;4.30;;;23.30;29.70;;;;;;2258310;61;20414;-60
2021/11/09 10:20:50;0.00;0.00;0.62;0.00;0.00;0.62;9.57;4.37;;;23.30;29.60;;;;;;2257608;61;20387;-60
2021/11/09 10:23:36;0.00;0.00;0.62;0.00;0.00;0.62;7.93;4.30;;;23.40;29.60;;;;;;2257941;61;20398;-59
2021/11/09 10:26:24;0.00;0.00;0.62;0.00;0.00;0.62;5.97;3.70;;;23.40;29.50;;;;;;2257393;61;20459;-61
2021/11/09 10:29:09;0.00;0.00;0.62;0.00;0.00;0.62;6.80;4.10;;;23.40;29.40;;;;;;2258164;61;20386;-60
2021/11/09 10:31:54;0.00;0.00;0.62;0.00;0.00;0.62;6.10;3.70;;;23.50;29.90;;;;;;2257740;61;20467;-60
2021/11/09 10:34:38;0.00;0.00;0.62;0.00;0.00;0.62;6.57;3.97;;;23.50;29.30;;;;;;2255844;58;20617;-60
2021/11/09 10:37:26;0.00;0.00;0.62;0.00;0.00;0.62;6.27;3.50;;;23.50;29.30;;;;;;2257323;61;20483;-60
2021/11/09 10:40:18;0.00;0.00;0.62;0.00;0.00;0.62;12.37;5.83;;;23.60;29.40;;;;;;2253601;61;20391;-59
2021/11/09 10:43:05;0.00;0.00;0.62;0.00;0.00;0.62;7.40;4.43;;;23.60;29.20;;;;;;2252985;61;20607;-59
2021/11/09 10:45:51;0.00;0.00;0.62;0.00;0.00;0.62;9.47;4.50;;;23.70;29.20;;;;;;2253813;61;20397;-60
2021/11/09 10:48:43;0.00;0.00;0.62;0.00;0.00;0.62;9.23;4.17;;;23.70;29.20;;;;;;2253121;61;20423;-60
2021/11/09 10:51:55;0.00;0.00;0.62;0.00;0.00;0.62;8.27;4.00;;;23.70;29.20;;;;;;2255379;61;20438;-60
2021/11/09 10:54:49;0.00;0.00;0.62;0.00;0.00;0.62;6.30;3.97;;;23.80;29.30;;;;;;2257612;61;20370;-60
2021/11/09 10:57:52;0.00;0.00;0.62;0.00;0.00;0.62;6.80;3.80;;;23.80;29.30;;;;;;2257190;61;20410;-60
2021/11/09 11:04:00;0.00;0.00;0.62;0.00;0.00;0.62;7.33;3.53;;;23.90;29.30;;;;;;2257164;61;20363;-61
2021/11/09 11:06:47;0.00;0.00;0.62;0.00;0.00;0.62;4.77;3.30;;;23.90;29.30;;;;;;2258041;61;20355;-60
2021/11/09 11:09:32;0.00;0.00;0.62;0.00;0.00;0.62;6.07;3.60;;;23.90;29.30;;;;;;2258086;61;20722;-60
2021/11/09 11:12:17;0.00;0.00;0.62;0.00;0.00;0.62;4.63;3.20;;;24.00;29.40;;;;;;2256440;61;20394;-59
2021/11/09 11:15:11;0.00;0.00;0.62;0.00;0.00;0.62;6.10;3.47;;;24.00;29.40;;;;;;2433859;45;20413;-60
2021/11/09 11:17:59;0.00;0.00;0.62;0.00;0.00;0.62;5.13;2.93;;;24.10;29.50;;;;;;2257469;61;20398;-60
2021/11/09 11:20:44;0.00;0.00;0.62;0.00;0.00;0.62;5.23;3.50;;;24.10;29.50;;;;;;2254770;61;20379;-60
2021/11/09 11:23:30;0.00;0.00;0.62;0.00;0.00;0.62;4.00;2.90;;;24.10;29.50;;;;;;2257468;61;20414;-60
2021/11/09 11:26:16;0.00;0.00;0.62;0.00;0.00;0.62;3.23;2.07;;;24.20;30.00;;;;;;2427415;45;20360;-60
2021/11/09 11:29:02;0.00;0.00;0.62;0.00;0.00;0.62;6.23;2.80;;;24.30;29.60;;;;;;2257373;61;20371;-60
2021/11/09 11:31:50;0.00;0.00;0.62;0.00;0.00;0.62;4.90;2.70;;;24.30;29.60;;;;;;2257889;61;20449;-60
2021/11/09 11:34:35;0.00;0.00;0.62;0.00;0.00;0.62;4.30;2.60;;;24.30;29.60;;;;;;2256764;61;20359;-60
2021/11/09 11:37:21;0.00;0.00;0.62;0.00;0.00;0.62;3.10;2.43;;;24.30;29.60;;;;;;2257557;61;20363;-61
2021/11/09 11:40:08;0.00;0.00;0.62;0.00;0.00;0.62;7.80;2.93;;;24.40;29.70;;;;;;2257445;61;20407;-60
2021/11/09 11:42:53;0.00;0.00;0.62;0.00;0.00;0.62;3.63;2.70;;;24.40;29.70;;;;;;2257814;61;20406;-61
2021/11/09 11:45:45;0.00;0.00;0.62;0.00;0.00;0.62;4.03;2.47;;;24.50;29.60;;;;;;2257704;61;20402;-59
2021/11/09 11:48:57;0.00;0.00;0.62;0.00;0.00;0.62;4.90;2.73;;;24.50;29.60;;;;;;2256758;61;20761;-61
2021/11/09 11:52:06;0.00;0.00;0.62;0.00;0.00;0.62;5.83;2.73;;;24.50;29.50;;;;;;2257476;61;20383;-59
2021/11/09 11:54:56;0.00;0.00;0.62;0.00;0.00;0.62;4.23;2.50;;;24.60;29.60;;;;;;2257462;61;20363;-59
2021/11/09 11:57:52;0.00;0.00;0.62;0.00;0.00;0.62;4.07;2.20;;;24.50;29.50;;;;;;2257734;61;20427;-59
2021/11/09 12:00:42;0.00;0.00;0.62;0.00;0.00;0.62;4.97;2.97;;;24.60;29.50;;;;;;2257972;61;20359;-58
2021/11/09 12:03:41;0.00;0.00;0.62;0.00;0.00;0.62;3.27;2.27;;;24.60;29.50;;;;;;2253510;61;20379;-58
2021/11/09 12:06:28;0.00;0.00;0.62;0.00;0.00;0.62;3.97;2.97;;;24.70;29.50;;;;;;2257686;61;20359;-58
2021/11/09 12:09:28;0.00;0.00;0.62;0.00;0.00;0.62;4.90;2.50;;;24.70;29.50;;;;;;2257857;61;20738;-59
2021/11/09 12:12:30;0.00;0.00;0.62;0.00;0.00;0.62;4.00;2.40;;;24.70;29.40;;;;;;2257288;61;20391;-59
2021/11/09 12:15:15;0.00;0.00;0.62;0.00;0.00;0.62;4.27;2.73;;;24.70;29.40;;;;;;2257618;61;20467;-59
2021/11/09 12:18:00;0.00;0.00;0.62;0.00;0.00;0.62;4.73;2.33;;;24.70;29.40;;;;;;2256666;61;20378;-61
2021/11/09 12:20:44;0.00;0.00;0.62;0.00;0.00;0.62;3.50;2.50;;;24.80;29.40;;;;;;2257861;61;20757;-61
2021/11/09 12:23:33;0.00;0.00;0.62;0.00;0.00;0.62;4.00;2.43;;;24.80;29.30;;;;;;2257747;61;20494;-59
2021/11/09 12:26:43;0.00;0.00;0.62;0.00;0.00;0.62;4.77;2.60;;;24.80;29.40;;;;;;2256638;61;20426;-59
2021/11/09 12:29:52;0.00;0.00;0.62;0.00;0.00;0.62;2.70;1.80;;;24.80;29.30;;;;;;2257619;61;20395;-61
2021/11/09 12:32:41;0.00;0.00;0.62;0.00;0.00;0.62;3.00;2.00;;;24.80;29.30;;;;;;2253411;61;20474;-61
2021/11/09 12:35:27;0.00;0.00;0.62;0.00;0.00;0.62;2.50;2.10;;;24.80;29.20;;;;;;2257856;61;20379;-60
2021/11/09 12:38:16;0.00;0.00;0.62;0.00;0.00;0.62;3.33;2.20;;;24.90;29.30;;;;;;2257642;61;20402;-60
2021/11/09 12:41:10;0.00;0.00;0.62;0.00;0.00;0.62;3.20;2.30;;;24.90;29.30;;;;;;2256590;61;20587;-60
2021/11/09 12:43:57;0.00;0.00;0.62;0.00;0.00;0.62;3.23;2.10;;;24.90;29.30;;;;;;2257525;61;20472;-61
2021/11/09 12:46:46;0.00;0.00;0.62;0.00;0.00;0.62;3.13;2.13;;;25.00;29.30;;;;;;2257243;61;20363;-61
2021/11/09 12:49:36;0.00;0.00;0.62;0.00;0.00;0.62;3.23;1.70;;;25.00;29.30;;;;;;2257706;61;20381;-60
2021/11/09 12:52:21;0.00;0.00;0.62;0.00;0.00;0.62;2.83;2.13;;;25.00;29.30;;;;;;2257349;61;20383;-61
2021/11/09 12:55:11;0.00;0.00;0.62;0.00;0.00;0.62;2.90;1.80;;;25.00;29.20;;;;;;2257287;61;20363;-61
2021/11/09 12:58:15;0.00;0.00;0.62;0.00;0.00;0.62;3.13;2.00;;;25.00;29.20;;;;;;2258126;61;20390;-61
2021/11/09 13:01:21;0.00;0.00;0.62;0.00;0.00;0.62;2.67;1.87;;;25.10;29.20;;;;;;2258281;61;20782;-59
2021/11/09 13:04:15;0.00;0.00;0.62;0.00;0.00;0.62;2.57;1.60;;;25.10;29.20;;;;;;2258115;61;20402;-61
2021/11/09 13:07:13;0.00;0.00;0.62;0.00;0.00;0.62;2.53;1.73;;;25.10;29.10;;;;;;2255110;61;20398;-59